createdAt,value
2023-02-01T00:04:14.939Z,1.92
2023-02-01T00:09:19.876Z,1.85
2023-02-01T00:14:23.062Z,1.79
2023-02-01T00:19:26.549Z,1.97
2023-02-01T00:24:31.475Z,1.91
2023-02-01T00:29:34.480Z,1.99
2023-02-01T00:34:38.106Z,1.86
2023-02-01T00:39:42.821Z,2.03
2023-02-01T00:44:46.117Z,1.93
2023-02-01T00:49:49.568Z,1.92
2023-02-01T00:54:54.315Z,1.87
2023-02-01T00:59:57.783Z,1.85
2023-02-01T01:05:01.272Z,2.08
2023-02-01T01:10:07.476Z,2.29
2023-02-01T01:15:11.700Z,2.36
2023-02-01T01:20:15.377Z,2.42
2023-02-01T01:25:20.175Z,2.45
2023-02-01T01:30:23.995Z,2.28
2023-02-01T01:35:27.647Z,2.29
2023-02-01T01:40:33.317Z,2.24
2023-02-01T01:45:37.263Z,2.20
2023-02-01T01:50:45.020Z,2.34
2023-02-01T01:55:51.740Z,2.20
2023-02-01T02:00:56.206Z,2.24
2023-02-01T02:06:01.647Z,2.23
2023-02-01T02:11:06.756Z,2.16
2023-02-01T02:16:26.223Z,2.19
2023-02-01T02:21:45.620Z,2.19
2023-02-01T02:27:24.110Z,2.20
2023-02-01T02:32:55.094Z,2.17
2023-02-01T02:38:08.169Z,2.12
2023-02-01T02:43:33.290Z,2.08
2023-02-01T02:48:41.105Z,1.97
2023-02-01T02:54:11.258Z,2.08
2023-02-01T02:59:37.341Z,2.07
2023-02-01T03:04:41.802Z,1.91
2023-02-01T03:09:49.938Z,2.00
2023-02-01T03:14:58.980Z,2.11
2023-02-01T03:20:05.291Z,2.01
2023-02-01T03:25:15.299Z,1.90
2023-02-01T03:30:22.741Z,2.05
2023-02-01T03:35:31.641Z,1.94
2023-02-01T03:40:39.973Z,2.08
2023-02-01T03:45:46.495Z,2.08
2023-02-01T03:50:54.617Z,1.99
2023-02-01T03:56:00.189Z,2.10
2023-02-01T04:01:03.755Z,2.05
2023-02-01T04:06:07.856Z,1.91
2023-02-01T04:11:12.570Z,2.00
2023-02-01T04:16:16.186Z,1.87
2023-02-01T04:21:19.656Z,1.93
2023-02-01T04:26:24.569Z,1.93
2023-02-01T04:31:28.721Z,1.93
2023-02-01T04:36:32.226Z,1.83
2023-02-01T04:41:37.027Z,2.00
2023-02-01T04:46:40.352Z,2.01
2023-02-01T04:51:44.243Z,2.14
2023-02-01T04:56:48.968Z,2.24
2023-02-01T05:01:52.497Z,2.04
2023-02-01T05:06:55.972Z,2.07
2023-02-01T05:12:17.780Z,2.02
2023-02-01T05:17:21.133Z,2.14
2023-02-01T05:22:24.617Z,2.26
2023-02-01T05:27:31.591Z,2.32
2023-02-01T05:32:35.273Z,2.33
2023-02-01T05:37:38.721Z,2.22
2023-02-01T05:42:43.696Z,2.16
2023-02-01T05:47:47.028Z,2.10
2023-02-01T05:52:50.453Z,2.22
2023-02-01T05:57:55.248Z,2.29
2023-02-01T06:02:58.736Z,2.20
2023-02-01T06:08:02.250Z,2.11
2023-02-01T06:13:07.361Z,2.15
2023-02-01T06:18:11.584Z,2.26
2023-02-01T06:23:15.028Z,2.28
2023-02-01T06:28:19.839Z,2.21
2023-02-01T06:33:23.113Z,2.26
2023-02-01T06:38:27.438Z,2.20
2023-02-01T06:43:33.879Z,2.18
2023-02-01T06:48:37.764Z,2.24
2023-02-01T06:53:41.187Z,2.44
2023-02-01T06:58:47.328Z,2.45
2023-02-01T07:03:52.368Z,2.43
2023-02-01T07:08:57.019Z,2.42
2023-02-01T07:14:01.932Z,2.52
2023-02-01T07:19:06.647Z,2.55
2023-02-01T07:24:10.112Z,2.61
2023-02-01T07:29:15.007Z,2.53
2023-02-01T07:34:18.171Z,2.46
2023-02-01T07:39:21.642Z,2.24
2023-02-01T07:44:26.562Z,2.16
2023-02-01T07:49:29.598Z,2.28
2023-02-01T07:54:33.029Z,2.13
2023-02-01T07:59:57.751Z,2.29
2023-02-01T08:05:01.169Z,2.21
2023-02-01T08:10:06.855Z,2.08
2023-02-01T08:15:12.496Z,2.21
2023-02-01T08:20:16.608Z,2.40
2023-02-01T08:25:20.275Z,2.40
2023-02-01T08:30:25.461Z,2.24
2023-02-01T08:35:42.448Z,2.46
2023-02-01T08:40:47.425Z,2.49
2023-02-01T08:45:53.641Z,2.49
2023-02-01T08:50:58.300Z,2.39
2023-02-01T08:56:02.009Z,2.40
2023-02-01T09:01:08.826Z,2.34
2023-02-01T09:06:14.362Z,2.41
2023-02-01T09:11:20.582Z,2.45
2023-02-01T09:16:26.063Z,2.40
2023-02-01T09:21:29.501Z,2.39
2023-02-01T09:26:33.257Z,2.42
2023-02-01T09:31:41.742Z,2.50
2023-02-01T09:36:45.684Z,2.57
2023-02-01T09:41:59.134Z,2.67
2023-02-01T09:47:04.161Z,2.55
2023-02-01T09:52:10.746Z,2.52
2023-02-01T09:57:21.671Z,2.73
2023-02-01T10:02:29.379Z,2.89
2023-02-01T10:07:43.709Z,2.82
2023-02-01T10:13:12.177Z,2.89
2023-02-01T10:18:34.199Z,2.81
2023-02-01T10:24:16.117Z,2.78
2023-02-01T10:29:23.047Z,2.67
2023-02-01T10:34:30.340Z,2.85
2023-02-01T10:39:33.739Z,2.96
2023-02-01T10:44:45.463Z,2.98
2023-02-01T10:49:57.911Z,3.13
2023-02-01T10:55:30.673Z,3.18
2023-02-01T11:00:43.822Z,3.08
2023-02-01T11:05:48.874Z,2.88
2023-02-01T11:11:00.890Z,2.69
2023-02-01T11:16:06.500Z,2.74
2023-02-01T11:21:12.072Z,2.74
2023-02-01T11:26:24.961Z,2.47
2023-02-01T11:31:30.089Z,2.45
2023-02-01T11:36:36.257Z,2.66
2023-02-01T11:41:47.012Z,2.72
2023-02-01T11:46:50.394Z,2.49
2023-02-01T11:52:14.571Z,2.28
2023-02-01T11:57:35.413Z,2.27
2023-02-01T12:03:08.806Z,2.29
2023-02-01T12:08:36.999Z,2.40
2023-02-01T12:13:53.986Z,2.16
2023-02-01T12:19:18.307Z,2.34
2023-02-01T12:25:01.721Z,2.07
2023-02-01T12:30:38.554Z,1.89
2023-02-01T12:35:54.555Z,1.79
2023-02-01T12:41:12.141Z,1.87
2023-02-01T12:46:24.045Z,1.77
2023-02-01T12:51:32.092Z,1.49
2023-02-01T12:56:42.676Z,1.60
2023-02-01T13:01:53.435Z,1.53
2023-02-01T13:07:05.913Z,1.62
2023-02-01T13:12:16.171Z,1.71
2023-02-01T13:17:26.070Z,1.52
2023-02-01T13:22:34.566Z,1.56
2023-02-01T13:27:38.345Z,1.66
2023-02-01T13:33:54.446Z,1.71
2023-02-01T13:39:34.222Z,1.62
2023-02-01T13:44:42.904Z,1.65
2023-02-01T13:49:48.007Z,1.65
2023-02-01T13:54:51.544Z,1.79
2023-02-01T13:59:56.868Z,1.66
2023-02-01T14:05:02.044Z,1.68
2023-02-01T14:10:39.514Z,1.56
2023-02-01T14:16:11.043Z,1.68
2023-02-01T14:21:24.469Z,1.56
2023-02-01T14:26:30.346Z,1.58
2023-02-01T14:31:54.409Z,1.64
2023-02-01T14:37:03.300Z,1.47
2023-02-01T14:42:18.546Z,1.40
2023-02-01T14:47:34.036Z,1.51
2023-02-01T14:52:43.963Z,1.47
2023-02-01T14:57:51.403Z,1.32
2023-02-01T15:02:56.513Z,1.34
2023-02-01T15:08:08.070Z,1.45
2023-02-01T15:13:22.186Z,1.36
2023-02-01T15:18:25.850Z,1.35
2023-02-01T15:23:31.809Z,1.30
2023-02-01T15:28:35.585Z,1.37
2023-02-01T15:33:39.077Z,1.38
2023-02-01T15:38:44.824Z,1.49
2023-02-01T15:44:05.043Z,1.55
2023-02-01T15:49:22.825Z,1.34
2023-02-01T15:54:32.129Z,1.33
2023-02-01T15:59:45.191Z,1.30
2023-02-01T16:04:52.429Z,1.27
2023-02-01T16:10:00.752Z,1.19
2023-02-01T16:15:04.623Z,1.13
2023-02-01T16:20:10.503Z,1.07
2023-02-01T16:25:15.591Z,1.07
2023-02-01T16:30:24.083Z,1.12
2023-02-01T16:35:30.956Z,1.17
2023-02-01T16:40:35.689Z,1.31
2023-02-01T16:45:41.283Z,1.03
2023-02-01T16:50:45.054Z,0.96
2023-02-01T16:55:50.617Z,0.75
2023-02-01T17:00:55.133Z,0.82
2023-02-01T17:05:59.688Z,0.86
2023-02-01T17:11:05.416Z,0.69
2023-02-01T17:16:17.830Z,0.78
2023-02-01T17:21:21.680Z,0.88
2023-02-01T17:26:26.774Z,0.82
2023-02-01T17:31:30.522Z,1.07
2023-02-01T17:36:33.843Z,1.04
2023-02-01T17:41:39.348Z,1.07
2023-02-01T17:46:42.802Z,1.05
2023-02-01T17:51:46.303Z,0.95
2023-02-01T17:56:51.118Z,0.82
2023-02-01T18:02:00.875Z,0.83
2023-02-01T18:07:04.378Z,1.02
2023-02-01T18:12:20.070Z,1.02
2023-02-01T18:17:23.944Z,1.10
2023-02-01T18:22:27.443Z,1.01
2023-02-01T18:27:32.287Z,0.99
2023-02-01T18:32:35.748Z,1.00
2023-02-01T18:37:39.090Z,0.88
2023-02-01T18:42:44.640Z,0.94
2023-02-01T18:47:48.231Z,0.90
2023-02-01T18:52:54.967Z,1.01
2023-02-01T18:58:00.405Z,0.97
2023-02-01T19:03:03.988Z,0.85
2023-02-01T19:08:07.665Z,0.92
2023-02-01T19:13:14.664Z,1.08
2023-02-01T19:18:20.450Z,0.88
2023-02-01T19:23:23.945Z,0.60
2023-02-01T19:28:28.844Z,0.61
2023-02-01T19:33:32.673Z,0.47
2023-02-01T19:38:36.020Z,0.44
2023-02-01T19:43:40.892Z,0.37
2023-02-01T19:48:44.153Z,0.33
2023-02-01T19:53:47.651Z,0.32
2023-02-01T19:58:53.108Z,0.33
2023-02-01T20:04:01.707Z,0.44
2023-02-01T20:09:05.205Z,0.46
2023-02-01T20:14:11.194Z,0.49
2023-02-01T20:19:15.988Z,0.65
2023-02-01T20:24:19.691Z,0.56
2023-02-01T20:29:25.411Z,0.47
2023-02-01T20:34:28.580Z,0.38
2023-02-01T20:39:32.493Z,0.20
2023-02-01T20:44:37.252Z,0.26
2023-02-01T20:49:41.270Z,0.12
2023-02-01T20:54:44.903Z,0.12
2023-02-01T20:59:49.864Z,0.20
2023-02-01T21:04:53.433Z,0.17
2023-02-01T21:09:57.530Z,0.09
2023-02-01T21:15:02.437Z,0.21
2023-02-01T21:20:09.831Z,0.21
2023-02-01T21:25:13.215Z,0.13
2023-02-01T21:30:18.475Z,0.26
2023-02-01T21:35:22.089Z,0.25
2023-02-01T21:40:25.752Z,0.28
2023-02-01T21:45:30.508Z,0.49
2023-02-01T21:50:35.389Z,0.54
2023-02-01T21:55:38.476Z,0.50
2023-02-01T22:00:45.817Z,0.49
2023-02-01T22:05:51.203Z,0.49
2023-02-01T22:10:54.553Z,0.43
2023-02-01T22:15:59.791Z,0.53
2023-02-01T22:21:04.019Z,0.61
2023-02-01T22:26:09.604Z,0.60
2023-02-01T22:31:14.849Z,0.54
2023-02-01T22:36:19.078Z,0.44
2023-02-01T22:41:22.693Z,0.31
2023-02-01T22:46:29.992Z,0.51
2023-02-01T22:51:34.070Z,0.68
2023-02-01T22:56:38.682Z,0.61
2023-02-01T23:01:44.355Z,0.75
2023-02-01T23:06:47.811Z,0.79
2023-02-01T23:11:51.389Z,0.75
2023-02-01T23:16:56.214Z,0.77
2023-02-01T23:21:59.662Z,0.68
2023-02-01T23:27:03.400Z,0.57
2023-02-01T23:32:09.913Z,0.50
2023-02-01T23:37:13.493Z,0.47
2023-02-01T23:42:17.047Z,0.44
2023-02-01T23:47:21.837Z,0.47
2023-02-01T23:52:25.155Z,0.48
2023-02-01T23:57:28.650Z,0.41
